Aeroporto :
LOGIN :

Iscrizione | Disclaimer

   EN    FR    IT 

 










Sommario :    VFR   VFR Marginale   IFR   IFR Intensivo   IFR Molto Intensivo
Visibilità : 
Base nubi : 
>= 8 km
>= 3000ft
5 / 8 km
1000 / 3000 ft
1500m / 5 km
500 / 1000 ft
800 / 1500m
200 / 500 ft
< 800m
< 200 ft
Simboli :   Temporali  Nebbia  Neve Forte  Precipitazioni Forti  Vento > 20 kt
SIGMETs :   Varie  Temporali  Ghiacco  Turbolenza  Onda orograficha  Ceneri Vulcaniche






- Altitudine del aeroporto : 699 ft
- Codice IATA : PAD


EDLP - Paderborn Lippstadt

ULTIMO METAR :
  • 232020Z 16005KT CAVOK 05/M01 Q0996

METARs OBSOLETI :
  • 231950Z 14004KT CAVOK 05/M01 Q0995
  • 231920Z 18008KT CAVOK 06/M00 Q0995
  • 231850Z 18009KT CAVOK 06/M00 Q0995
  • 231820Z 18010KT CAVOK 06/M01 Q0995
  • 231750Z 18009KT CAVOK 07/M00 Q0995
  • 231720Z 18008KT CAVOK 07/M00 Q0994
  • 231650Z 18005KT CAVOK 08/M00 Q0994
  • 231620Z 18008KT 140V210 CAVOK 08/M00 Q0994
  • 231550Z 18006KT 150V210 CAVOK 08/M01 Q0994
  • 231520Z 20013KT 180V240 9999 FEW039 SCT049 08/M00 Q0994

TAF TAF EDLP
Valido dal 23 a 18 ore il 24 a 18 ore UTC


231700Z 2318/2418 17008KT 9999 BKN030
PROB30
TEMPO 2407/2409 4000 SHRAGS BKN020CB
BECMG 2409/2412 20013KT
PROB30
TEMPO 2410/2414 21015G25KT 4000 SHRAGS BKN020CB
BECMG 2415/2418 17008KT



MetMap, La meteo Aeronautica in un colpo d'occhio ! - Copyright ORBIFLY Dicembre 2007 - Disclaimer

ORBIFLY MET'MAP TEAM :

Programmazione e sviluppo : Alexandra Zaïnal
Concezione : Baudouin d'Aumeries
Supporto tecnico e logistico : Manuel Goepfert
Aiuto : Marc-Olivier Méhu
Aiuto per la traduzione : Arnaldo La Scala




FONTI E CREDITI :

   NOAA